sensor_id;sensor_type;location;lat;lon;timestamp;temperature;humidity
25250;DHT22;13201;51.148;13.738;2023-04-24T00:00:01;13.90;99.90
25250;DHT22;13201;51.148;13.738;2023-04-24T00:02:30;13.90;99.90
25250;DHT22;13201;51.148;13.738;2023-04-24T00:04:57;13.80;99.90
25250;DHT22;13201;51.148;13.738;2023-04-24T00:07:22;13.80;99.90
25250;DHT22;13201;51.148;13.738;2023-04-24T00:09:48;13.60;99.90
25250;DHT22;13201;51.148;13.738;2023-04-24T00:12:14;13.50;99.90
25250;DHT22;13201;51.148;13.738;2023-04-24T00:14:39;13.70;99.90
25250;DHT22;13201;51.148;13.738;2023-04-24T00:17:05;13.70;99.90
25250;DHT22;13201;51.148;13.738;2023-04-24T00:19:31;13.80;99.90
25250;DHT22;13201;51.148;13.738;2023-04-24T00:21:57;13.90;99.90
25250;DHT22;13201;51.148;13.738;2023-04-24T00:24:22;13.80;99.90
25250;DHT22;13201;51.148;13.738;2023-04-24T00:26:48;14.00;99.90
25250;DHT22;13201;51.148;13.738;2023-04-24T00:29:14;14.00;99.90
25250;DHT22;13201;51.148;13.738;2023-04-24T00:31:39;14.10;99.90
25250;DHT22;13201;51.148;13.738;2023-04-24T00:34:05;14.10;99.90
25250;DHT22;13201;51.148;13.738;2023-04-24T00:36:31;13.80;99.90
25250;DHT22;13201;51.148;13.738;2023-04-24T00:38:58;13.90;99.90
25250;DHT22;13201;51.148;13.738;2023-04-24T00:41:25;13.90;99.90
25250;DHT22;13201;51.148;13.738;2023-04-24T00:43:51;13.60;99.90
25250;DHT22;13201;51.148;13.738;2023-04-24T00:46:17;13.70;99.90
25250;DHT22;13201;51.148;13.738;2023-04-24T00:48:43;13.50;99.90
25250;DHT22;13201;51.148;13.738;2023-04-24T00:51:09;13.60;99.90
25250;DHT22;13201;51.148;13.738;2023-04-24T00:53:35;13.50;99.90
25250;DHT22;13201;51.148;13.738;2023-04-24T00:56:02;13.30;99.90
25250;DHT22;13201;51.148;13.738;2023-04-24T00:58:28;13.40;99.90
25250;DHT22;13201;51.148;13.738;2023-04-24T01:00:54;13.40;99.90
25250;DHT22;13201;51.148;13.738;2023-04-24T01:03:26;13.60;99.90
25250;DHT22;13201;51.148;13.738;2023-04-24T01:30:32;12.80;99.90
25250;DHT22;13201;51.148;13.738;2023-04-24T01:32:59;12.80;99.90
25250;DHT22;13201;51.148;13.738;2023-04-24T01:35:25;12.80;99.90
25250;DHT22;13201;51.148;13.738;2023-04-24T01:37:51;13.00;99.90
25250;DHT22;13201;51.148;13.738;2023-04-24T01:40:16;13.10;99.90
25250;DHT22;13201;51.148;13.738;2023-04-24T01:42:42;13.10;99.90
25250;DHT22;13201;51.148;13.738;2023-04-24T01:45:10;13.00;99.90
25250;DHT22;13201;51.148;13.738;2023-04-24T01:47:36;13.20;99.90
25250;DHT22;13201;51.148;13.738;2023-04-24T01:50:03;13.20;99.90
25250;DHT22;13201;51.148;13.738;2023-04-24T01:52:29;13.20;99.90
25250;DHT22;13201;51.148;13.738;2023-04-24T01:55:00;13.30;99.90
25250;DHT22;13201;51.148;13.738;2023-04-24T01:57:26;13.50;99.90
25250;DHT22;13201;51.148;13.738;2023-04-24T01:59:52;13.60;99.90
25250;DHT22;13201;51.148;13.738;2023-04-24T02:02:17;13.60;99.90
25250;DHT22;13201;51.148;13.738;2023-04-24T02:04:43;13.70;99.90
25250;DHT22;13201;51.148;13.738;2023-04-24T02:07:09;13.70;99.90
25250;DHT22;13201;51.148;13.738;2023-04-24T02:09:34;13.90;99.90
25250;DHT22;13201;51.148;13.738;2023-04-24T02:12:00;14.00;99.90
25250;DHT22;13201;51.148;13.738;2023-04-24T02:14:26;14.00;99.90
25250;DHT22;13201;51.148;13.738;2023-04-24T02:16:51;14.00;99.90
25250;DHT22;13201;51.148;13.738;2023-04-24T02:19:18;14.00;99.90
25250;DHT22;13201;51.148;13.738;2023-04-24T02:21:44;14.00;99.90
25250;DHT22;13201;51.148;13.738;2023-04-24T02:24:10;13.90;99.90
25250;DHT22;13201;51.148;13.738;2023-04-24T02:26:35;13.90;99.90
25250;DHT22;13201;51.148;13.738;2023-04-24T02:29:01;13.90;99.90
25250;DHT22;13201;51.148;13.738;2023-04-24T02:31:27;13.90;99.90
25250;DHT22;13201;51.148;13.738;2023-04-24T02:33:52;13.70;99.90
25250;DHT22;13201;51.148;13.738;2023-04-24T02:36:18;13.70;99.90
25250;DHT22;13201;51.148;13.738;2023-04-24T02:38:44;13.80;99.90
25250;DHT22;13201;51.148;13.738;2023-04-24T02:41:09;13.80;99.90
25250;DHT22;13201;51.148;13.738;2023-04-24T02:43:35;13.80;99.90
25250;DHT22;13201;51.148;13.738;2023-04-24T02:46:01;13.80;99.90
25250;DHT22;13201;51.148;13.738;2023-04-24T02:48:27;13.80;99.90
25250;DHT22;13201;51.148;13.738;2023-04-24T02:50:53;13.80;99.90
25250;DHT22;13201;51.148;13.738;2023-04-24T02:53:19;13.80;99.90
25250;DHT22;13201;51.148;13.738;2023-04-24T02:55:45;13.80;99.90
25250;DHT22;13201;51.148;13.738;2023-04-24T02:58:11;13.60;99.90
25250;DHT22;13201;51.148;13.738;2023-04-24T03:00:38;13.60;99.90
25250;DHT22;13201;51.148;13.738;2023-04-24T03:03:04;13.70;99.90
25250;DHT22;13201;51.148;13.738;2023-04-24T03:05:31;13.50;99.90
25250;DHT22;13201;51.148;13.738;2023-04-24T03:07:56;13.50;99.90
25250;DHT22;13201;51.148;13.738;2023-04-24T03:10:22;13.60;99.90
25250;DHT22;13201;51.148;13.738;2023-04-24T03:12:48;13.60;99.90
25250;DHT22;13201;51.148;13.738;2023-04-24T03:15:14;13.60;99.90
25250;DHT22;13201;51.148;13.738;2023-04-24T03:17:40;13.60;99.90
25250;DHT22;13201;51.148;13.738;2023-04-24T03:20:07;13.70;99.90
25250;DHT22;13201;51.148;13.738;2023-04-24T03:22:36;13.70;99.90
25250;DHT22;13201;51.148;13.738;2023-04-24T03:25:02;13.70;99.90
25250;DHT22;13201;51.148;13.738;2023-04-24T03:27:27;13.70;99.90
25250;DHT22;13201;51.148;13.738;2023-04-24T03:29:53;13.80;99.90
25250;DHT22;13201;51.148;13.738;2023-04-24T03:32:22;13.70;99.90
25250;DHT22;13201;51.148;13.738;2023-04-24T03:34:48;13.60;99.90
25250;DHT22;13201;51.148;13.738;2023-04-24T03:37:15;13.70;99.90
25250;DHT22;13201;51.148;13.738;2023-04-24T03:39:41;13.60;99.90
25250;DHT22;13201;51.148;13.738;2023-04-24T03:42:07;13.60;99.90
25250;DHT22;13201;51.148;13.738;2023-04-24T03:44:34;13.50;99.90
25250;DHT22;13201;51.148;13.738;2023-04-24T03:47:00;13.40;99.90
25250;DHT22;13201;51.148;13.738;2023-04-24T03:49:25;13.50;99.90
25250;DHT22;13201;51.148;13.738;2023-04-24T03:51:51;13.40;99.90
25250;DHT22;13201;51.148;13.738;2023-04-24T03:54:18;13.40;99.90
25250;DHT22;13201;51.148;13.738;2023-04-24T03:56:44;13.40;99.90
25250;DHT22;13201;51.148;13.738;2023-04-24T03:59:10;13.40;99.90
25250;DHT22;13201;51.148;13.738;2023-04-24T04:01:36;13.30;99.90
25250;DHT22;13201;51.148;13.738;2023-04-24T04:04:06;13.30;99.90
25250;DHT22;13201;51.148;13.738;2023-04-24T04:06:31;13.40;99.90
25250;DHT22;13201;51.148;13.738;2023-04-24T04:08:58;13.50;99.90
25250;DHT22;13201;51.148;13.738;2023-04-24T04:11:24;13.50;99.90
25250;DHT22;13201;51.148;13.738;2023-04-24T04:13:50;13.50;99.90
25250;DHT22;13201;51.148;13.738;2023-04-24T04:16:16;13.40;99.90
25250;DHT22;13201;51.148;13.738;2023-04-24T04:18:45;13.50;99.90
25250;DHT22;13201;51.148;13.738;2023-04-24T04:21:10;13.30;99.90
25250;DHT22;13201;51.148;13.738;2023-04-24T04:23:36;13.50;99.90
25250;DHT22;13201;51.148;13.738;2023-04-24T04:26:03;13.50;99.90
25250;DHT22;13201;51.148;13.738;2023-04-24T04:28:29;13.50;99.90
25250;DHT22;13201;51.148;13.738;2023-04-24T04:30:57;13.50;99.90
25250;DHT22;13201;51.148;13.738;2023-04-24T04:33:24;13.60;99.90
25250;DHT22;13201;51.148;13.738;2023-04-24T04:35:50;13.60;99.90
25250;DHT22;13201;51.148;13.738;2023-04-24T04:38:20;13.50;99.90
25250;DHT22;13201;51.148;13.738;2023-04-24T04:40:46;13.70;99.90
25250;DHT22;13201;51.148;13.738;2023-04-24T04:43:12;13.80;99.90
25250;DHT22;13201;51.148;13.738;2023-04-24T04:45:41;13.80;99.90
25250;DHT22;13201;51.148;13.738;2023-04-24T04:48:09;13.70;99.90
25250;DHT22;13201;51.148;13.738;2023-04-24T04:50:37;13.70;99.90
25250;DHT22;13201;51.148;13.738;2023-04-24T04:53:03;13.80;99.90
25250;DHT22;13201;51.148;13.738;2023-04-24T04:55:29;13.80;99.90
25250;DHT22;13201;51.148;13.738;2023-04-24T04:57:55;13.90;99.90
25250;DHT22;13201;51.148;13.738;2023-04-24T05:00:21;13.80;99.90
25250;DHT22;13201;51.148;13.738;2023-04-24T05:02:50;13.90;99.90
25250;DHT22;13201;51.148;13.738;2023-04-24T05:05:16;13.90;99.90
25250;DHT22;13201;51.148;13.738;2023-04-24T05:07:43;14.10;99.90
25250;DHT22;13201;51.148;13.738;2023-04-24T05:10:09;14.20;99.90
25250;DHT22;13201;51.148;13.738;2023-04-24T05:12:35;14.30;99.90
25250;DHT22;13201;51.148;13.738;2023-04-24T05:15:00;14.30;99.90
25250;DHT22;13201;51.148;13.738;2023-04-24T05:17:26;14.30;99.90
25250;DHT22;13201;51.148;13.738;2023-04-24T05:19:52;14.20;99.90
25250;DHT22;13201;51.148;13.738;2023-04-24T05:22:17;14.20;99.90
25250;DHT22;13201;51.148;13.738;2023-04-24T05:24:46;14.30;99.90
25250;DHT22;13201;51.148;13.738;2023-04-24T05:27:12;14.40;99.90
25250;DHT22;13201;51.148;13.738;2023-04-24T05:29:38;14.50;99.90
25250;DHT22;13201;51.148;13.738;2023-04-24T05:32:03;14.60;99.90
25250;DHT22;13201;51.148;13.738;2023-04-24T05:34:29;14.40;99.90
25250;DHT22;13201;51.148;13.738;2023-04-24T05:36:55;14.60;99.90
25250;DHT22;13201;51.148;13.738;2023-04-24T05:39:21;14.70;99.90
25250;DHT22;13201;51.148;13.738;2023-04-24T05:41:47;14.70;99.90
25250;DHT22;13201;51.148;13.738;2023-04-24T05:44:12;14.60;99.90
25250;DHT22;13201;51.148;13.738;2023-04-24T05:46:38;14.60;99.90
25250;DHT22;13201;51.148;13.738;2023-04-24T05:49:04;14.80;99.90
25250;DHT22;13201;51.148;13.738;2023-04-24T05:51:29;14.90;99.90
25250;DHT22;13201;51.148;13.738;2023-04-24T05:53:57;14.80;99.90
25250;DHT22;13201;51.148;13.738;2023-04-24T05:56:23;14.80;99.90
25250;DHT22;13201;51.148;13.738;2023-04-24T05:58:48;14.80;99.90
25250;DHT22;13201;51.148;13.738;2023-04-24T06:01:14;14.90;99.90
25250;DHT22;13201;51.148;13.738;2023-04-24T06:03:41;14.80;99.90
25250;DHT22;13201;51.148;13.738;2023-04-24T06:06:07;14.90;99.90
25250;DHT22;13201;51.148;13.738;2023-04-24T06:08:33;15.00;99.90
25250;DHT22;13201;51.148;13.738;2023-04-24T06:10:59;15.10;99.90
25250;DHT22;13201;51.148;13.738;2023-04-24T06:13:25;14.90;99.90
25250;DHT22;13201;51.148;13.738;2023-04-24T06:15:51;15.00;99.90
25250;DHT22;13201;51.148;13.738;2023-04-24T06:18:16;14.80;99.90
25250;DHT22;13201;51.148;13.738;2023-04-24T06:20:42;14.80;99.90
25250;DHT22;13201;51.148;13.738;2023-04-24T06:23:08;14.80;99.90
25250;DHT22;13201;51.148;13.738;2023-04-24T06:25:34;14.80;99.90
25250;DHT22;13201;51.148;13.738;2023-04-24T06:27:59;14.80;99.90
25250;DHT22;13201;51.148;13.738;2023-04-24T06:30:25;14.80;99.90
25250;DHT22;13201;51.148;13.738;2023-04-24T06:32:52;14.70;99.90
25250;DHT22;13201;51.148;13.738;2023-04-24T06:35:18;14.80;99.90
25250;DHT22;13201;51.148;13.738;2023-04-24T06:37:44;14.80;99.90
25250;DHT22;13201;51.148;13.738;2023-04-24T06:40:10;14.70;99.90
25250;DHT22;13201;51.148;13.738;2023-04-24T06:42:36;15.00;99.90
25250;DHT22;13201;51.148;13.738;2023-04-24T06:45:02;15.00;99.90
25250;DHT22;13201;51.148;13.738;2023-04-24T06:47:28;15.20;99.90
25250;DHT22;13201;51.148;13.738;2023-04-24T06:49:54;15.10;99.90
25250;DHT22;13201;51.148;13.738;2023-04-24T06:52:20;14.90;99.90
25250;DHT22;13201;51.148;13.738;2023-04-24T06:54:46;15.20;99.90
25250;DHT22;13201;51.148;13.738;2023-04-24T06:57:12;15.30;99.90
25250;DHT22;13201;51.148;13.738;2023-04-24T06:59:38;15.20;99.90
25250;DHT22;13201;51.148;13.738;2023-04-24T07:02:03;15.40;99.90
25250;DHT22;13201;51.148;13.738;2023-04-24T07:04:30;15.40;99.90
25250;DHT22;13201;51.148;13.738;2023-04-24T07:06:56;15.30;99.90
25250;DHT22;13201;51.148;13.738;2023-04-24T07:09:24;15.30;99.90
25250;DHT22;13201;51.148;13.738;2023-04-24T07:11:51;15.40;99.90
25250;DHT22;13201;51.148;13.738;2023-04-24T07:14:17;15.60;99.90
25250;DHT22;13201;51.148;13.738;2023-04-24T07:16:43;15.50;99.90
25250;DHT22;13201;51.148;13.738;2023-04-24T07:19:09;15.50;99.90
25250;DHT22;13201;51.148;13.738;2023-04-24T07:21:35;15.60;99.90
25250;DHT22;13201;51.148;13.738;2023-04-24T07:24:01;15.70;99.90
25250;DHT22;13201;51.148;13.738;2023-04-24T07:26:29;16.00;99.90
25250;DHT22;13201;51.148;13.738;2023-04-24T07:28:54;15.80;99.90
25250;DHT22;13201;51.148;13.738;2023-04-24T07:31:20;16.00;99.90
25250;DHT22;13201;51.148;13.738;2023-04-24T07:33:47;16.10;99.90
25250;DHT22;13201;51.148;13.738;2023-04-24T07:36:13;16.20;99.90
25250;DHT22;13201;51.148;13.738;2023-04-24T07:38:42;15.80;99.90
25250;DHT22;13201;51.148;13.738;2023-04-24T07:41:08;15.80;99.90
25250;DHT22;13201;51.148;13.738;2023-04-24T07:43:35;15.80;99.90
25250;DHT22;13201;51.148;13.738;2023-04-24T07:46:01;16.10;99.90
25250;DHT22;13201;51.148;13.738;2023-04-24T07:48:26;16.00;99.90
25250;DHT22;13201;51.148;13.738;2023-04-24T07:50:53;15.80;99.90
25250;DHT22;13201;51.148;13.738;2023-04-24T07:53:18;15.90;99.90
25250;DHT22;13201;51.148;13.738;2023-04-24T07:55:45;15.90;99.90
25250;DHT22;13201;51.148;13.738;2023-04-24T07:58:11;16.10;99.90
25250;DHT22;13201;51.148;13.738;2023-04-24T08:00:37;16.00;99.90
25250;DHT22;13201;51.148;13.738;2023-04-24T08:03:02;15.80;99.90
25250;DHT22;13201;51.148;13.738;2023-04-24T08:05:28;15.60;99.90
25250;DHT22;13201;51.148;13.738;2023-04-24T08:07:54;15.60;99.90
25250;DHT22;13201;51.148;13.738;2023-04-24T08:10:23;15.80;99.90
25250;DHT22;13201;51.148;13.738;2023-04-24T08:12:49;16.00;99.90
25250;DHT22;13201;51.148;13.738;2023-04-24T08:15:15;16.10;99.90
25250;DHT22;13201;51.148;13.738;2023-04-24T08:17:41;16.10;99.90
25250;DHT22;13201;51.148;13.738;2023-04-24T08:20:07;16.10;99.90
25250;DHT22;13201;51.148;13.738;2023-04-24T08:22:39;16.10;99.90
25250;DHT22;13201;51.148;13.738;2023-04-24T08:25:05;16.30;99.90
25250;DHT22;13201;51.148;13.738;2023-04-24T08:27:31;16.20;99.90
25250;DHT22;13201;51.148;13.738;2023-04-24T08:29:57;16.40;99.90
25250;DHT22;13201;51.148;13.738;2023-04-24T08:32:24;16.20;99.90
25250;DHT22;13201;51.148;13.738;2023-04-24T08:34:49;16.30;99.90
25250;DHT22;13201;51.148;13.738;2023-04-24T08:37:18;16.40;99.90
25250;DHT22;13201;51.148;13.738;2023-04-24T08:39:44;15.80;99.90
25250;DHT22;13201;51.148;13.738;2023-04-24T08:42:11;15.80;99.90
25250;DHT22;13201;51.148;13.738;2023-04-24T08:44:38;15.70;99.90
25250;DHT22;13201;51.148;13.738;2023-04-24T08:47:05;15.70;99.90
25250;DHT22;13201;51.148;13.738;2023-04-24T08:49:33;15.80;99.90
25250;DHT22;13201;51.148;13.738;2023-04-24T08:52:01;15.80;99.90
25250;DHT22;13201;51.148;13.738;2023-04-24T08:54:28;15.80;99.90
25250;DHT22;13201;51.148;13.738;2023-04-24T08:56:59;16.10;99.90
25250;DHT22;13201;51.148;13.738;2023-04-24T08:59:27;16.10;99.90
25250;DHT22;13201;51.148;13.738;2023-04-24T09:01:55;16.60;99.90
25250;DHT22;13201;51.148;13.738;2023-04-24T09:04:22;16.50;99.90
25250;DHT22;13201;51.148;13.738;2023-04-24T09:06:57;16.10;99.90
25250;DHT22;13201;51.148;13.738;2023-04-24T09:09:23;16.00;99.90
25250;DHT22;13201;51.148;13.738;2023-04-24T09:11:50;16.30;99.90
25250;DHT22;13201;51.148;13.738;2023-04-24T09:14:16;16.30;99.90
25250;DHT22;13201;51.148;13.738;2023-04-24T09:16:43;16.00;99.90
25250;DHT22;13201;51.148;13.738;2023-04-24T09:19:08;16.10;99.90
25250;DHT22;13201;51.148;13.738;2023-04-24T09:21:35;16.50;99.90
25250;DHT22;13201;51.148;13.738;2023-04-24T09:24:05;16.50;99.90
25250;DHT22;13201;51.148;13.738;2023-04-24T09:26:35;16.60;99.90
25250;DHT22;13201;51.148;13.738;2023-04-24T09:29:01;16.60;99.90
25250;DHT22;13201;51.148;13.738;2023-04-24T09:31:28;16.20;99.90
25250;DHT22;13201;51.148;13.738;2023-04-24T09:36:40;16.20;99.90
25250;DHT22;13201;51.148;13.738;2023-04-24T09:39:09;16.20;99.90
25250;DHT22;13201;51.148;13.738;2023-04-24T09:44:14;16.30;99.90
25250;DHT22;13201;51.148;13.738;2023-04-24T09:46:45;16.30;99.90
25250;DHT22;13201;51.148;13.738;2023-04-24T09:49:15;16.40;99.90
25250;DHT22;13201;51.148;13.738;2023-04-24T09:51:42;16.20;99.90
25250;DHT22;13201;51.148;13.738;2023-04-24T09:54:26;16.20;99.90
25250;DHT22;13201;51.148;13.738;2023-04-24T09:56:51;16.40;99.90
25250;DHT22;13201;51.148;13.738;2023-04-24T09:59:18;16.60;99.90
25250;DHT22;13201;51.148;13.738;2023-04-24T10:01:44;17.00;99.90
25250;DHT22;13201;51.148;13.738;2023-04-24T10:04:21;16.90;99.90
25250;DHT22;13201;51.148;13.738;2023-04-24T10:06:48;17.30;99.90
25250;DHT22;13201;51.148;13.738;2023-04-24T10:09:15;17.00;99.90
25250;DHT22;13201;51.148;13.738;2023-04-24T10:11:41;16.70;99.90
25250;DHT22;13201;51.148;13.738;2023-04-24T10:14:10;16.80;99.90
25250;DHT22;13201;51.148;13.738;2023-04-24T10:16:38;16.80;99.90
25250;DHT22;13201;51.148;13.738;2023-04-24T10:19:04;16.70;99.90
25250;DHT22;13201;51.148;13.738;2023-04-24T10:21:31;16.90;99.90
25250;DHT22;13201;51.148;13.738;2023-04-24T10:23:57;16.90;99.90
25250;DHT22;13201;51.148;13.738;2023-04-24T10:26:26;16.90;99.90
25250;DHT22;13201;51.148;13.738;2023-04-24T10:28:54;16.80;99.90
25250;DHT22;13201;51.148;13.738;2023-04-24T10:31:23;17.20;99.90
25250;DHT22;13201;51.148;13.738;2023-04-24T10:33:50;17.20;99.90
25250;DHT22;13201;51.148;13.738;2023-04-24T10:36:18;17.30;99.90
25250;DHT22;13201;51.148;13.738;2023-04-24T10:38:45;17.40;99.90
25250;DHT22;13201;51.148;13.738;2023-04-24T10:41:13;17.90;99.90
25250;DHT22;13201;51.148;13.738;2023-04-24T10:43:45;18.10;99.90
25250;DHT22;13201;51.148;13.738;2023-04-24T10:46:19;18.30;99.90
25250;DHT22;13201;51.148;13.738;2023-04-24T10:48:53;18.50;99.90
25250;DHT22;13201;51.148;13.738;2023-04-24T10:51:42;18.20;99.90
25250;DHT22;13201;51.148;13.738;2023-04-24T10:54:29;17.60;99.90
25250;DHT22;13201;51.148;13.738;2023-04-24T10:59:43;18.00;99.90
25250;DHT22;13201;51.148;13.738;2023-04-24T11:02:09;18.10;99.90
25250;DHT22;13201;51.148;13.738;2023-04-24T11:04:35;17.80;99.90
25250;DHT22;13201;51.148;13.738;2023-04-24T11:07:03;17.80;99.90
25250;DHT22;13201;51.148;13.738;2023-04-24T11:09:32;17.80;99.90
25250;DHT22;13201;51.148;13.738;2023-04-24T11:12:07;17.90;99.90
25250;DHT22;13201;51.148;13.738;2023-04-24T11:17:37;17.40;99.90
25250;DHT22;13201;51.148;13.738;2023-04-24T11:20:10;17.50;99.90
25250;DHT22;13201;51.148;13.738;2023-04-24T11:22:38;17.50;99.90
25250;DHT22;13201;51.148;13.738;2023-04-24T11:25:06;17.30;99.90
25250;DHT22;13201;51.148;13.738;2023-04-24T11:27:42;16.90;99.90
25250;DHT22;13201;51.148;13.738;2023-04-24T11:30:08;16.70;99.90
25250;DHT22;13201;51.148;13.738;2023-04-24T11:32:40;16.70;99.90
25250;DHT22;13201;51.148;13.738;2023-04-24T11:37:40;16.90;99.90
25250;DHT22;13201;51.148;13.738;2023-04-24T11:40:12;16.80;99.90
25250;DHT22;13201;51.148;13.738;2023-04-24T11:42:46;17.00;99.90
25250;DHT22;13201;51.148;13.738;2023-04-24T11:45:14;17.10;99.90
25250;DHT22;13201;51.148;13.738;2023-04-24T11:47:40;17.20;99.90
25250;DHT22;13201;51.148;13.738;2023-04-24T11:50:10;17.20;99.90
25250;DHT22;13201;51.148;13.738;2023-04-24T11:52:41;17.00;99.90
25250;DHT22;13201;51.148;13.738;2023-04-24T11:57:49;17.40;99.90
25250;DHT22;13201;51.148;13.738;2023-04-24T12:00:21;17.30;99.90
25250;DHT22;13201;51.148;13.738;2023-04-24T12:02:48;16.80;99.90
25250;DHT22;13201;51.148;13.738;2023-04-24T12:05:24;16.70;99.90
25250;DHT22;13201;51.148;13.738;2023-04-24T12:07:51;16.60;99.90
25250;DHT22;13201;51.148;13.738;2023-04-24T12:10:25;16.50;99.90
25250;DHT22;13201;51.148;13.738;2023-04-24T12:12:52;16.40;99.90
25250;DHT22;13201;51.148;13.738;2023-04-24T12:15:19;16.20;99.90
25250;DHT22;13201;51.148;13.738;2023-04-24T12:17:45;16.10;99.90
25250;DHT22;13201;51.148;13.738;2023-04-24T12:20:12;15.90;99.90
25250;DHT22;13201;51.148;13.738;2023-04-24T12:22:48;16.00;99.90
25250;DHT22;13201;51.148;13.738;2023-04-24T12:25:15;16.40;99.90
25250;DHT22;13201;51.148;13.738;2023-04-24T12:27:41;16.40;99.90
25250;DHT22;13201;51.148;13.738;2023-04-24T12:30:12;16.70;99.90
25250;DHT22;13201;51.148;13.738;2023-04-24T12:32:48;16.90;99.90
25250;DHT22;13201;51.148;13.738;2023-04-24T12:35:20;16.70;99.90
25250;DHT22;13201;51.148;13.738;2023-04-24T12:37:46;16.60;99.90
25250;DHT22;13201;51.148;13.738;2023-04-24T12:40:13;16.50;99.90
25250;DHT22;13201;51.148;13.738;2023-04-24T12:42:49;16.80;99.90
25250;DHT22;13201;51.148;13.738;2023-04-24T12:45:17;17.10;99.90
25250;DHT22;13201;51.148;13.738;2023-04-24T12:47:44;17.10;99.90
25250;DHT22;13201;51.148;13.738;2023-04-24T12:50:12;17.40;99.90
25250;DHT22;13201;51.148;13.738;2023-04-24T12:52:38;17.20;99.90
25250;DHT22;13201;51.148;13.738;2023-04-24T12:55:05;17.40;99.90
25250;DHT22;13201;51.148;13.738;2023-04-24T12:57:34;16.90;99.90
25250;DHT22;13201;51.148;13.738;2023-04-24T13:00:00;16.70;99.90
25250;DHT22;13201;51.148;13.738;2023-04-24T13:02:28;16.70;99.90
25250;DHT22;13201;51.148;13.738;2023-04-24T13:04:55;17.00;99.90
25250;DHT22;13201;51.148;13.738;2023-04-24T13:07:21;17.50;99.90
25250;DHT22;13201;51.148;13.738;2023-04-24T13:09:49;18.00;99.90
25250;DHT22;13201;51.148;13.738;2023-04-24T13:12:15;18.10;99.90
25250;DHT22;13201;51.148;13.738;2023-04-24T13:14:41;18.50;99.90
25250;DHT22;13201;51.148;13.738;2023-04-24T13:17:07;18.70;99.90
25250;DHT22;13201;51.148;13.738;2023-04-24T13:19:41;18.40;99.50
25250;DHT22;13201;51.148;13.738;2023-04-24T13:22:10;18.50;98.40
25250;DHT22;13201;51.148;13.738;2023-04-24T13:24:37;18.80;98.90
25250;DHT22;13201;51.148;13.738;2023-04-24T13:27:04;18.60;98.70
25250;DHT22;13201;51.148;13.738;2023-04-24T13:29:29;18.70;99.10
25250;DHT22;13201;51.148;13.738;2023-04-24T13:31:55;18.40;98.30
25250;DHT22;13201;51.148;13.738;2023-04-24T13:34:25;18.20;99.10
25250;DHT22;13201;51.148;13.738;2023-04-24T13:36:54;18.40;99.60
25250;DHT22;13201;51.148;13.738;2023-04-24T13:39:21;18.50;98.60
25250;DHT22;13201;51.148;13.738;2023-04-24T13:41:47;18.80;98.80
25250;DHT22;13201;51.148;13.738;2023-04-24T13:44:14;18.80;98.60
25250;DHT22;13201;51.148;13.738;2023-04-24T13:46:40;18.80;97.10
25250;DHT22;13201;51.148;13.738;2023-04-24T13:49:07;19.20;97.00
25250;DHT22;13201;51.148;13.738;2023-04-24T13:51:33;19.30;96.50
25250;DHT22;13201;51.148;13.738;2023-04-24T13:53:59;19.40;97.20
25250;DHT22;13201;51.148;13.738;2023-04-24T13:56:26;18.80;96.60
25250;DHT22;13201;51.148;13.738;2023-04-24T13:58:51;17.70;96.30
25250;DHT22;13201;51.148;13.738;2023-04-24T14:01:19;17.60;97.70
25250;DHT22;13201;51.148;13.738;2023-04-24T14:03:46;17.60;97.40
25250;DHT22;13201;51.148;13.738;2023-04-24T14:06:11;18.20;96.50
25250;DHT22;13201;51.148;13.738;2023-04-24T14:08:37;18.40;95.00
25250;DHT22;13201;51.148;13.738;2023-04-24T14:11:03;18.50;95.60
25250;DHT22;13201;51.148;13.738;2023-04-24T14:13:29;19.00;95.10
25250;DHT22;13201;51.148;13.738;2023-04-24T14:15:55;18.90;95.60
25250;DHT22;13201;51.148;13.738;2023-04-24T14:18:20;18.60;96.40
25250;DHT22;13201;51.148;13.738;2023-04-24T14:20:46;19.10;95.90
25250;DHT22;13201;51.148;13.738;2023-04-24T14:23:12;19.10;94.10
25250;DHT22;13201;51.148;13.738;2023-04-24T14:25:37;19.50;94.40
25250;DHT22;13201;51.148;13.738;2023-04-24T14:28:03;18.70;95.20
25250;DHT22;13201;51.148;13.738;2023-04-24T14:30:29;18.40;94.80
25250;DHT22;13201;51.148;13.738;2023-04-24T14:32:54;18.20;95.80
25250;DHT22;13201;51.148;13.738;2023-04-24T14:35:20;19.20;96.40
25250;DHT22;13201;51.148;13.738;2023-04-24T14:37:46;19.30;95.40
25250;DHT22;13201;51.148;13.738;2023-04-24T14:40:13;19.90;95.30
25250;DHT22;13201;51.148;13.738;2023-04-24T14:42:40;18.60;95.20
25250;DHT22;13201;51.148;13.738;2023-04-24T14:45:06;18.40;96.10
25250;DHT22;13201;51.148;13.738;2023-04-24T14:47:33;17.80;97.20
25250;DHT22;13201;51.148;13.738;2023-04-24T14:49:58;17.60;96.30
25250;DHT22;13201;51.148;13.738;2023-04-24T14:52:25;17.60;95.90
25250;DHT22;13201;51.148;13.738;2023-04-24T14:54:50;17.40;96.60
25250;DHT22;13201;51.148;13.738;2023-04-24T14:57:16;17.50;96.10
25250;DHT22;13201;51.148;13.738;2023-04-24T14:59:42;17.90;96.30
25250;DHT22;13201;51.148;13.738;2023-04-24T15:02:07;18.60;96.30
25250;DHT22;13201;51.148;13.738;2023-04-24T15:04:33;18.10;95.00
25250;DHT22;13201;51.148;13.738;2023-04-24T15:06:59;17.90;95.30
25250;DHT22;13201;51.148;13.738;2023-04-24T15:09:25;18.40;96.20
25250;DHT22;13201;51.148;13.738;2023-04-24T15:11:51;18.50;95.50
25250;DHT22;13201;51.148;13.738;2023-04-24T15:14:18;18.40;94.50
25250;DHT22;13201;51.148;13.738;2023-04-24T15:16:44;18.60;94.40
25250;DHT22;13201;51.148;13.738;2023-04-24T15:19:10;18.60;94.80
25250;DHT22;13201;51.148;13.738;2023-04-24T15:21:37;18.50;94.40
25250;DHT22;13201;51.148;13.738;2023-04-24T15:24:06;18.10;95.30
25250;DHT22;13201;51.148;13.738;2023-04-24T15:26:32;18.00;94.60
25250;DHT22;13201;51.148;13.738;2023-04-24T15:28:57;17.60;95.10
25250;DHT22;13201;51.148;13.738;2023-04-24T15:31:23;16.90;95.30
25250;DHT22;13201;51.148;13.738;2023-04-24T15:33:49;16.80;95.30
25250;DHT22;13201;51.148;13.738;2023-04-24T15:36:16;16.50;95.70
25250;DHT22;13201;51.148;13.738;2023-04-24T15:38:45;16.50;96.00
25250;DHT22;13201;51.148;13.738;2023-04-24T15:41:11;16.50;96.10
25250;DHT22;13201;51.148;13.738;2023-04-24T15:43:37;16.70;96.30
25250;DHT22;13201;51.148;13.738;2023-04-24T15:46:04;16.60;95.90
25250;DHT22;13201;51.148;13.738;2023-04-24T15:48:31;16.40;95.90
25250;DHT22;13201;51.148;13.738;2023-04-24T15:50:57;16.50;97.00
25250;DHT22;13201;51.148;13.738;2023-04-24T15:53:23;16.40;96.60